sensor_id;sensor_type;location;lat;lon;timestamp;temperature;humidity
8436;DHT22;4255;48.730;9.156;2022-09-27T00:00:21;10.50;99.90
8436;DHT22;4255;48.730;9.156;2022-09-27T00:02:47;10.50;99.90
8436;DHT22;4255;48.730;9.156;2022-09-27T00:05:14;10.50;99.90
8436;DHT22;4255;48.730;9.156;2022-09-27T00:07:40;10.50;99.90
8436;DHT22;4255;48.730;9.156;2022-09-27T00:10:06;10.50;99.90
8436;DHT22;4255;48.730;9.156;2022-09-27T00:12:33;10.40;99.90
8436;DHT22;4255;48.730;9.156;2022-09-27T00:14:59;10.40;99.90
8436;DHT22;4255;48.730;9.156;2022-09-27T00:17:25;10.40;99.90
8436;DHT22;4255;48.730;9.156;2022-09-27T00:19:52;10.40;99.90
8436;DHT22;4255;48.730;9.156;2022-09-27T00:22:23;10.50;99.90
8436;DHT22;4255;48.730;9.156;2022-09-27T00:24:49;10.50;99.90
8436;DHT22;4255;48.730;9.156;2022-09-27T00:27:15;10.50;99.90
8436;DHT22;4255;48.730;9.156;2022-09-27T00:29:42;10.50;99.90
8436;DHT22;4255;48.730;9.156;2022-09-27T00:32:08;10.60;99.90
8436;DHT22;4255;48.730;9.156;2022-09-27T00:34:34;10.60;99.90
8436;DHT22;4255;48.730;9.156;2022-09-27T00:36:59;10.60;99.90
8436;DHT22;4255;48.730;9.156;2022-09-27T00:39:25;10.60;99.90
8436;DHT22;4255;48.730;9.156;2022-09-27T00:41:51;10.50;99.90
8436;DHT22;4255;48.730;9.156;2022-09-27T00:47:17;10.40;99.90
8436;DHT22;4255;48.730;9.156;2022-09-27T00:49:58;10.40;99.90
8436;DHT22;4255;48.730;9.156;2022-09-27T00:52:58;10.50;99.90
8436;DHT22;4255;48.730;9.156;2022-09-27T00:55:34;10.40;99.90
8436;DHT22;4255;48.730;9.156;2022-09-27T00:58:01;10.50;99.90
8436;DHT22;4255;48.730;9.156;2022-09-27T01:00:29;10.50;99.90
8436;DHT22;4255;48.730;9.156;2022-09-27T01:02:55;10.40;99.90
8436;DHT22;4255;48.730;9.156;2022-09-27T01:05:24;10.40;99.90
8436;DHT22;4255;48.730;9.156;2022-09-27T01:07:51;10.40;99.90
8436;DHT22;4255;48.730;9.156;2022-09-27T01:10:22;10.40;99.90
8436;DHT22;4255;48.730;9.156;2022-09-27T01:13:12;10.40;99.90
8436;DHT22;4255;48.730;9.156;2022-09-27T01:16:09;10.40;99.90
8436;DHT22;4255;48.730;9.156;2022-09-27T01:29:32;10.70;99.90
8436;DHT22;4255;48.730;9.156;2022-09-27T01:35:01;10.60;99.90
8436;DHT22;4255;48.730;9.156;2022-09-27T01:40:35;10.50;99.90
8436;DHT22;4255;48.730;9.156;2022-09-27T01:43:06;10.60;99.90
8436;DHT22;4255;48.730;9.156;2022-09-27T01:45:43;10.60;99.90
8436;DHT22;4255;48.730;9.156;2022-09-27T01:48:16;10.60;99.90
8436;DHT22;4255;48.730;9.156;2022-09-27T01:51:01;10.60;99.90
8436;DHT22;4255;48.730;9.156;2022-09-27T01:53:40;10.70;99.90
8436;DHT22;4255;48.730;9.156;2022-09-27T01:56:10;10.60;99.90
8436;DHT22;4255;48.730;9.156;2022-09-27T01:58:48;10.80;99.90
8436;DHT22;4255;48.730;9.156;2022-09-27T02:01:17;10.80;99.90
8436;DHT22;4255;48.730;9.156;2022-09-27T02:03:48;10.80;99.90
8436;DHT22;4255;48.730;9.156;2022-09-27T02:06:28;10.80;99.90
8436;DHT22;4255;48.730;9.156;2022-09-27T02:09:25;10.90;99.90
8436;DHT22;4255;48.730;9.156;2022-09-27T02:11:56;10.90;99.90
8436;DHT22;4255;48.730;9.156;2022-09-27T02:20:18;10.80;99.90
8436;DHT22;4255;48.730;9.156;2022-09-27T02:28:12;10.60;99.90
8436;DHT22;4255;48.730;9.156;2022-09-27T02:30:42;10.60;99.90
8436;DHT22;4255;48.730;9.156;2022-09-27T02:33:07;10.70;99.90
8436;DHT22;4255;48.730;9.156;2022-09-27T02:35:34;10.50;99.90
8436;DHT22;4255;48.730;9.156;2022-09-27T02:38:01;10.20;99.90
8436;DHT22;4255;48.730;9.156;2022-09-27T02:40:33;10.10;99.90
8436;DHT22;4255;48.730;9.156;2022-09-27T02:43:01;10.00;99.90
8436;DHT22;4255;48.730;9.156;2022-09-27T02:46:05;9.90;99.90
8436;DHT22;4255;48.730;9.156;2022-09-27T02:51:42;10.00;99.90
8436;DHT22;4255;48.730;9.156;2022-09-27T03:05:19;9.90;99.90
8436;DHT22;4255;48.730;9.156;2022-09-27T03:07:45;9.90;99.90
8436;DHT22;4255;48.730;9.156;2022-09-27T03:10:28;10.00;99.90
8436;DHT22;4255;48.730;9.156;2022-09-27T03:12:55;9.90;99.90
8436;DHT22;4255;48.730;9.156;2022-09-27T03:15:21;9.90;99.90
8436;DHT22;4255;48.730;9.156;2022-09-27T03:17:47;9.80;99.90
8436;DHT22;4255;48.730;9.156;2022-09-27T03:20:13;9.70;99.90
8436;DHT22;4255;48.730;9.156;2022-09-27T03:22:38;9.70;99.90
8436;DHT22;4255;48.730;9.156;2022-09-27T03:25:06;9.70;99.90
8436;DHT22;4255;48.730;9.156;2022-09-27T03:27:32;9.60;99.90
8436;DHT22;4255;48.730;9.156;2022-09-27T03:29:57;9.60;99.90
8436;DHT22;4255;48.730;9.156;2022-09-27T03:32:24;9.70;99.90
8436;DHT22;4255;48.730;9.156;2022-09-27T03:34:50;9.70;99.90
8436;DHT22;4255;48.730;9.156;2022-09-27T03:37:16;9.60;99.90
8436;DHT22;4255;48.730;9.156;2022-09-27T03:39:41;9.60;99.90
8436;DHT22;4255;48.730;9.156;2022-09-27T03:42:07;9.60;99.90
8436;DHT22;4255;48.730;9.156;2022-09-27T03:44:32;9.50;99.90
8436;DHT22;4255;48.730;9.156;2022-09-27T03:46:58;9.50;99.90
8436;DHT22;4255;48.730;9.156;2022-09-27T03:49:24;9.40;99.90
8436;DHT22;4255;48.730;9.156;2022-09-27T03:51:50;9.30;99.90
8436;DHT22;4255;48.730;9.156;2022-09-27T03:54:16;9.40;99.90
8436;DHT22;4255;48.730;9.156;2022-09-27T03:56:42;9.60;99.90
8436;DHT22;4255;48.730;9.156;2022-09-27T03:59:07;9.60;99.90
8436;DHT22;4255;48.730;9.156;2022-09-27T04:01:33;9.70;99.90
8436;DHT22;4255;48.730;9.156;2022-09-27T04:04:00;9.80;99.90
8436;DHT22;4255;48.730;9.156;2022-09-27T04:06:26;9.90;99.90
8436;DHT22;4255;48.730;9.156;2022-09-27T04:08:52;9.90;99.90
8436;DHT22;4255;48.730;9.156;2022-09-27T04:11:18;10.00;99.90
8436;DHT22;4255;48.730;9.156;2022-09-27T04:13:44;10.00;99.90
8436;DHT22;4255;48.730;9.156;2022-09-27T04:16:10;9.90;99.90
8436;DHT22;4255;48.730;9.156;2022-09-27T04:18:36;9.90;99.90
8436;DHT22;4255;48.730;9.156;2022-09-27T04:21:02;9.90;99.90
8436;DHT22;4255;48.730;9.156;2022-09-27T04:23:27;10.00;99.90
8436;DHT22;4255;48.730;9.156;2022-09-27T04:25:53;9.80;99.90
8436;DHT22;4255;48.730;9.156;2022-09-27T04:28:19;9.90;99.90
8436;DHT22;4255;48.730;9.156;2022-09-27T04:30:45;10.00;99.90
8436;DHT22;4255;48.730;9.156;2022-09-27T04:33:11;9.90;99.90
8436;DHT22;4255;48.730;9.156;2022-09-27T04:35:37;10.00;99.90
8436;DHT22;4255;48.730;9.156;2022-09-27T04:38:21;10.00;99.90
8436;DHT22;4255;48.730;9.156;2022-09-27T04:40:49;9.90;99.90
8436;DHT22;4255;48.730;9.156;2022-09-27T04:43:15;9.90;99.90
8436;DHT22;4255;48.730;9.156;2022-09-27T04:45:42;10.00;99.90
8436;DHT22;4255;48.730;9.156;2022-09-27T04:48:08;9.90;99.90
8436;DHT22;4255;48.730;9.156;2022-09-27T04:50:34;10.00;99.90
8436;DHT22;4255;48.730;9.156;2022-09-27T04:53:00;10.00;99.90
8436;DHT22;4255;48.730;9.156;2022-09-27T04:55:26;9.90;99.90
8436;DHT22;4255;48.730;9.156;2022-09-27T04:57:52;9.80;99.90
8436;DHT22;4255;48.730;9.156;2022-09-27T05:00:18;9.80;99.90
8436;DHT22;4255;48.730;9.156;2022-09-27T05:02:44;9.90;99.90
8436;DHT22;4255;48.730;9.156;2022-09-27T05:05:11;9.90;99.90
8436;DHT22;4255;48.730;9.156;2022-09-27T05:07:37;10.00;99.90
8436;DHT22;4255;48.730;9.156;2022-09-27T05:10:04;10.10;99.90
8436;DHT22;4255;48.730;9.156;2022-09-27T05:12:30;9.90;99.90
8436;DHT22;4255;48.730;9.156;2022-09-27T05:14:56;10.00;99.90
8436;DHT22;4255;48.730;9.156;2022-09-27T05:17:22;10.00;99.90
8436;DHT22;4255;48.730;9.156;2022-09-27T05:19:48;10.00;99.90
8436;DHT22;4255;48.730;9.156;2022-09-27T05:22:14;10.10;99.90
8436;DHT22;4255;48.730;9.156;2022-09-27T05:24:40;10.00;99.90
8436;DHT22;4255;48.730;9.156;2022-09-27T05:27:07;10.00;99.90
8436;DHT22;4255;48.730;9.156;2022-09-27T05:29:34;10.00;99.90
8436;DHT22;4255;48.730;9.156;2022-09-27T05:32:00;10.10;99.90
8436;DHT22;4255;48.730;9.156;2022-09-27T05:34:26;10.00;99.90
8436;DHT22;4255;48.730;9.156;2022-09-27T05:36:52;10.10;99.90
8436;DHT22;4255;48.730;9.156;2022-09-27T05:39:18;10.10;99.90
8436;DHT22;4255;48.730;9.156;2022-09-27T05:41:44;10.10;99.90
8436;DHT22;4255;48.730;9.156;2022-09-27T05:44:10;10.10;99.90
8436;DHT22;4255;48.730;9.156;2022-09-27T05:46:37;10.00;99.90
8436;DHT22;4255;48.730;9.156;2022-09-27T05:49:04;10.00;99.90
8436;DHT22;4255;48.730;9.156;2022-09-27T05:51:29;9.90;99.90
8436;DHT22;4255;48.730;9.156;2022-09-27T05:53:55;9.90;99.90
8436;DHT22;4255;48.730;9.156;2022-09-27T05:56:21;10.00;99.90
8436;DHT22;4255;48.730;9.156;2022-09-27T05:58:46;10.10;99.90
8436;DHT22;4255;48.730;9.156;2022-09-27T06:01:12;10.10;99.90
8436;DHT22;4255;48.730;9.156;2022-09-27T06:03:38;10.20;99.90
8436;DHT22;4255;48.730;9.156;2022-09-27T06:06:06;10.20;99.90
8436;DHT22;4255;48.730;9.156;2022-09-27T06:08:33;10.20;99.90
8436;DHT22;4255;48.730;9.156;2022-09-27T06:11:05;10.20;99.90
8436;DHT22;4255;48.730;9.156;2022-09-27T06:13:32;10.20;99.90
8436;DHT22;4255;48.730;9.156;2022-09-27T06:15:58;10.10;99.90
8436;DHT22;4255;48.730;9.156;2022-09-27T06:18:24;10.20;99.90
8436;DHT22;4255;48.730;9.156;2022-09-27T06:20:50;10.10;99.90
8436;DHT22;4255;48.730;9.156;2022-09-27T06:23:19;10.10;99.90
8436;DHT22;4255;48.730;9.156;2022-09-27T06:25:45;9.90;99.90
8436;DHT22;4255;48.730;9.156;2022-09-27T06:28:12;9.90;99.90
8436;DHT22;4255;48.730;9.156;2022-09-27T06:30:40;10.00;99.90
8436;DHT22;4255;48.730;9.156;2022-09-27T06:33:06;10.00;99.90
8436;DHT22;4255;48.730;9.156;2022-09-27T06:35:34;9.80;99.90
8436;DHT22;4255;48.730;9.156;2022-09-27T06:38:08;9.80;99.90
8436;DHT22;4255;48.730;9.156;2022-09-27T06:40:35;9.80;99.90
8436;DHT22;4255;48.730;9.156;2022-09-27T06:43:05;9.80;99.90
8436;DHT22;4255;48.730;9.156;2022-09-27T06:45:34;9.80;99.90
8436;DHT22;4255;48.730;9.156;2022-09-27T06:48:04;9.90;99.90
8436;DHT22;4255;48.730;9.156;2022-09-27T06:50:32;9.90;99.90
8436;DHT22;4255;48.730;9.156;2022-09-27T06:52:58;9.90;99.90
8436;DHT22;4255;48.730;9.156;2022-09-27T06:55:24;9.80;99.90
8436;DHT22;4255;48.730;9.156;2022-09-27T06:57:54;9.80;99.90
8436;DHT22;4255;48.730;9.156;2022-09-27T07:00:38;9.80;99.90
8436;DHT22;4255;48.730;9.156;2022-09-27T07:03:03;10.10;99.90
8436;DHT22;4255;48.730;9.156;2022-09-27T07:05:30;10.30;99.90
8436;DHT22;4255;48.730;9.156;2022-09-27T07:07:56;10.30;99.90
8436;DHT22;4255;48.730;9.156;2022-09-27T07:10:28;10.10;99.90
8436;DHT22;4255;48.730;9.156;2022-09-27T07:12:54;9.90;99.90
8436;DHT22;4255;48.730;9.156;2022-09-27T07:15:21;10.10;99.90
8436;DHT22;4255;48.730;9.156;2022-09-27T07:17:54;10.10;99.90
8436;DHT22;4255;48.730;9.156;2022-09-27T07:20:20;10.00;99.90
8436;DHT22;4255;48.730;9.156;2022-09-27T07:22:45;10.10;99.90
8436;DHT22;4255;48.730;9.156;2022-09-27T07:25:11;10.00;99.90
8436;DHT22;4255;48.730;9.156;2022-09-27T07:27:37;10.00;99.90
8436;DHT22;4255;48.730;9.156;2022-09-27T07:30:06;10.10;99.90
8436;DHT22;4255;48.730;9.156;2022-09-27T07:32:32;10.10;99.90
8436;DHT22;4255;48.730;9.156;2022-09-27T07:35:00;10.10;99.90
8436;DHT22;4255;48.730;9.156;2022-09-27T07:37:25;10.10;99.90
8436;DHT22;4255;48.730;9.156;2022-09-27T07:39:51;9.90;99.90
8436;DHT22;4255;48.730;9.156;2022-09-27T07:42:17;9.80;99.90
8436;DHT22;4255;48.730;9.156;2022-09-27T07:44:42;9.90;99.90
8436;DHT22;4255;48.730;9.156;2022-09-27T07:47:09;9.80;99.90
8436;DHT22;4255;48.730;9.156;2022-09-27T07:49:35;9.70;99.90
8436;DHT22;4255;48.730;9.156;2022-09-27T07:52:01;9.90;99.90
8436;DHT22;4255;48.730;9.156;2022-09-27T07:54:27;10.10;99.90
8436;DHT22;4255;48.730;9.156;2022-09-27T07:56:52;10.20;99.90
8436;DHT22;4255;48.730;9.156;2022-09-27T07:59:19;10.30;99.90
8436;DHT22;4255;48.730;9.156;2022-09-27T08:01:45;10.60;99.90
8436;DHT22;4255;48.730;9.156;2022-09-27T08:04:11;10.60;99.90
8436;DHT22;4255;48.730;9.156;2022-09-27T08:06:36;10.80;99.90
8436;DHT22;4255;48.730;9.156;2022-09-27T08:09:07;10.80;99.90
8436;DHT22;4255;48.730;9.156;2022-09-27T08:11:36;10.80;99.90
8436;DHT22;4255;48.730;9.156;2022-09-27T08:14:02;10.70;99.90
8436;DHT22;4255;48.730;9.156;2022-09-27T08:16:29;10.70;99.90
8436;DHT22;4255;48.730;9.156;2022-09-27T08:18:55;10.70;99.90
8436;DHT22;4255;48.730;9.156;2022-09-27T08:21:20;10.70;99.90
8436;DHT22;4255;48.730;9.156;2022-09-27T08:23:46;10.70;99.90
8436;DHT22;4255;48.730;9.156;2022-09-27T08:26:11;10.70;99.90
8436;DHT22;4255;48.730;9.156;2022-09-27T08:28:37;10.80;99.90
8436;DHT22;4255;48.730;9.156;2022-09-27T08:31:03;11.00;99.90
8436;DHT22;4255;48.730;9.156;2022-09-27T08:33:28;11.20;99.90
8436;DHT22;4255;48.730;9.156;2022-09-27T08:35:54;11.30;99.90
8436;DHT22;4255;48.730;9.156;2022-09-27T08:38:20;11.20;99.90
8436;DHT22;4255;48.730;9.156;2022-09-27T08:49:02;11.10;99.90
8436;DHT22;4255;48.730;9.156;2022-09-27T08:51:30;10.80;99.90
8436;DHT22;4255;48.730;9.156;2022-09-27T08:54:04;10.80;99.90
8436;DHT22;4255;48.730;9.156;2022-09-27T08:56:31;10.50;99.90
8436;DHT22;4255;48.730;9.156;2022-09-27T08:59:06;10.50;99.90
8436;DHT22;4255;48.730;9.156;2022-09-27T09:01:36;10.50;99.90
8436;DHT22;4255;48.730;9.156;2022-09-27T09:04:03;10.70;99.90
8436;DHT22;4255;48.730;9.156;2022-09-27T09:18:11;12.30;99.90
8436;DHT22;4255;48.730;9.156;2022-09-27T09:23:42;12.20;99.90
8436;DHT22;4255;48.730;9.156;2022-09-27T09:29:00;12.40;99.90
8436;DHT22;4255;48.730;9.156;2022-09-27T09:31:57;12.60;99.90
8436;DHT22;4255;48.730;9.156;2022-09-27T09:34:38;12.70;99.90
8436;DHT22;4255;48.730;9.156;2022-09-27T09:37:33;12.70;99.90
8436;DHT22;4255;48.730;9.156;2022-09-27T09:45:46;12.10;99.90
8436;DHT22;4255;48.730;9.156;2022-09-27T09:50:46;12.00;99.90
8436;DHT22;4255;48.730;9.156;2022-09-27T09:53:35;12.20;99.90
8436;DHT22;4255;48.730;9.156;2022-09-27T09:56:23;12.20;99.90
8436;DHT22;4255;48.730;9.156;2022-09-27T09:58:59;12.30;99.90
8436;DHT22;4255;48.730;9.156;2022-09-27T10:01:40;12.30;99.90
8436;DHT22;4255;48.730;9.156;2022-09-27T10:04:21;12.60;99.90
8436;DHT22;4255;48.730;9.156;2022-09-27T10:06:48;12.80;99.90
8436;DHT22;4255;48.730;9.156;2022-09-27T10:09:15;13.10;99.90
8436;DHT22;4255;48.730;9.156;2022-09-27T10:11:43;13.20;99.90
8436;DHT22;4255;48.730;9.156;2022-09-27T10:14:15;13.30;99.90
8436;DHT22;4255;48.730;9.156;2022-09-27T10:16:45;13.30;99.90
8436;DHT22;4255;48.730;9.156;2022-09-27T10:19:16;13.30;99.90
8436;DHT22;4255;48.730;9.156;2022-09-27T10:21:45;13.40;99.90
8436;DHT22;4255;48.730;9.156;2022-09-27T10:24:15;13.10;99.90
8436;DHT22;4255;48.730;9.156;2022-09-27T10:26:42;12.70;99.90
8436;DHT22;4255;48.730;9.156;2022-09-27T10:31:55;12.70;99.90
8436;DHT22;4255;48.730;9.156;2022-09-27T10:39:36;12.60;99.90
8436;DHT22;4255;48.730;9.156;2022-09-27T10:42:35;12.60;99.90
8436;DHT22;4255;48.730;9.156;2022-09-27T10:47:50;13.10;99.90
8436;DHT22;4255;48.730;9.156;2022-09-27T10:50:30;13.20;99.90
8436;DHT22;4255;48.730;9.156;2022-09-27T10:53:15;13.30;99.90
8436;DHT22;4255;48.730;9.156;2022-09-27T10:55:46;13.20;99.90
8436;DHT22;4255;48.730;9.156;2022-09-27T10:58:34;13.10;99.90
8436;DHT22;4255;48.730;9.156;2022-09-27T11:01:04;13.10;99.90
8436;DHT22;4255;48.730;9.156;2022-09-27T11:03:34;13.00;99.90
8436;DHT22;4255;48.730;9.156;2022-09-27T11:08:53;12.90;99.90
8436;DHT22;4255;48.730;9.156;2022-09-27T11:11:24;12.80;99.90
8436;DHT22;4255;48.730;9.156;2022-09-27T11:14:03;12.90;99.90
8436;DHT22;4255;48.730;9.156;2022-09-27T11:27:22;13.00;99.90
8436;DHT22;4255;48.730;9.156;2022-09-27T11:30:18;13.00;99.90
8436;DHT22;4255;48.730;9.156;2022-09-27T11:35:37;13.10;99.90
8436;DHT22;4255;48.730;9.156;2022-09-27T11:46:31;12.70;99.90
8436;DHT22;4255;48.730;9.156;2022-09-27T11:57:22;12.90;99.90
8436;DHT22;4255;48.730;9.156;2022-09-27T12:05:39;13.10;99.90
8436;DHT22;4255;48.730;9.156;2022-09-27T12:11:24;13.00;99.90
8436;DHT22;4255;48.730;9.156;2022-09-27T12:16:42;12.60;99.90
8436;DHT22;4255;48.730;9.156;2022-09-27T12:19:23;12.50;99.90
8436;DHT22;4255;48.730;9.156;2022-09-27T12:21:51;12.50;99.90
8436;DHT22;4255;48.730;9.156;2022-09-27T12:24:21;12.60;99.90
8436;DHT22;4255;48.730;9.156;2022-09-27T12:26:51;12.60;99.90
8436;DHT22;4255;48.730;9.156;2022-09-27T12:29:27;12.40;99.90
8436;DHT22;4255;48.730;9.156;2022-09-27T12:35:04;12.20;99.90
8436;DHT22;4255;48.730;9.156;2022-09-27T12:37:39;11.90;99.90
8436;DHT22;4255;48.730;9.156;2022-09-27T12:40:20;11.90;99.90
8436;DHT22;4255;48.730;9.156;2022-09-27T12:42:53;12.00;99.90
8436;DHT22;4255;48.730;9.156;2022-09-27T12:51:16;11.90;99.90
8436;DHT22;4255;48.730;9.156;2022-09-27T12:59:59;12.40;99.90
8436;DHT22;4255;48.730;9.156;2022-09-27T13:05:19;12.60;99.90
8436;DHT22;4255;48.730;9.156;2022-09-27T13:13:16;13.10;99.90
8436;DHT22;4255;48.730;9.156;2022-09-27T13:15:44;13.20;99.90
8436;DHT22;4255;48.730;9.156;2022-09-27T13:18:30;12.90;99.90
8436;DHT22;4255;48.730;9.156;2022-09-27T13:20:56;12.90;99.90
8436;DHT22;4255;48.730;9.156;2022-09-27T13:25:49;12.70;99.90
8436;DHT22;4255;48.730;9.156;2022-09-27T13:31:04;12.40;99.90
8436;DHT22;4255;48.730;9.156;2022-09-27T13:33:51;12.40;99.90
8436;DHT22;4255;48.730;9.156;2022-09-27T13:41:37;12.60;99.90
8436;DHT22;4255;48.730;9.156;2022-09-27T13:46:57;12.40;99.90
8436;DHT22;4255;48.730;9.156;2022-09-27T13:49:37;12.40;99.90
8436;DHT22;4255;48.730;9.156;2022-09-27T13:54:57;12.60;99.90
8436;DHT22;4255;48.730;9.156;2022-09-27T14:00:22;12.60;99.90
8436;DHT22;4255;48.730;9.156;2022-09-27T14:03:02;12.60;99.90
8436;DHT22;4255;48.730;9.156;2022-09-27T14:05:55;12.60;99.90
8436;DHT22;4255;48.730;9.156;2022-09-27T14:08:46;12.80;99.90
8436;DHT22;4255;48.730;9.156;2022-09-27T14:11:33;12.50;99.90
8436;DHT22;4255;48.730;9.156;2022-09-27T14:13:59;12.40;99.90
8436;DHT22;4255;48.730;9.156;2022-09-27T14:16:31;12.10;99.90
8436;DHT22;4255;48.730;9.156;2022-09-27T14:18:58;12.00;99.90
8436;DHT22;4255;48.730;9.156;2022-09-27T14:21:29;11.60;99.90
8436;DHT22;4255;48.730;9.156;2022-09-27T14:26:46;11.70;99.90
8436;DHT22;4255;48.730;9.156;2022-09-27T14:29:19;11.60;99.90
8436;DHT22;4255;48.730;9.156;2022-09-27T14:31:45;11.40;99.90
8436;DHT22;4255;48.730;9.156;2022-09-27T14:34:14;11.30;99.90
8436;DHT22;4255;48.730;9.156;2022-09-27T14:36:42;11.10;99.90
8436;DHT22;4255;48.730;9.156;2022-09-27T14:39:33;11.20;99.90
8436;DHT22;4255;48.730;9.156;2022-09-27T14:42:04;11.20;99.90
8436;DHT22;4255;48.730;9.156;2022-09-27T14:44:30;11.40;99.90
8436;DHT22;4255;48.730;9.156;2022-09-27T14:47:16;11.60;99.90
8436;DHT22;4255;48.730;9.156;2022-09-27T14:52:18;11.90;99.90
8436;DHT22;4255;48.730;9.156;2022-09-27T14:54:55;11.70;99.90
8436;DHT22;4255;48.730;9.156;2022-09-27T14:57:21;11.90;99.90
8436;DHT22;4255;48.730;9.156;2022-09-27T14:59:47;11.80;99.90
8436;DHT22;4255;48.730;9.156;2022-09-27T15:02:20;11.80;99.90
8436;DHT22;4255;48.730;9.156;2022-09-27T15:04:49;11.90;99.90
8436;DHT22;4255;48.730;9.156;2022-09-27T15:07:15;11.80;99.90
8436;DHT22;4255;48.730;9.156;2022-09-27T15:09:42;12.10;99.90
8436;DHT22;4255;48.730;9.156;2022-09-27T15:12:11;12.20;99.90
8436;DHT22;4255;48.730;9.156;2022-09-27T15:14:39;12.40;99.90
8436;DHT22;4255;48.730;9.156;2022-09-27T15:17:15;12.40;99.90
8436;DHT22;4255;48.730;9.156;2022-09-27T15:19:55;12.40;99.90
8436;DHT22;4255;48.730;9.156;2022-09-27T15:22:30;12.40;99.90
8436;DHT22;4255;48.730;9.156;2022-09-27T15:25:16;12.60;99.90
8436;DHT22;4255;48.730;9.156;2022-09-27T15:27:50;12.60;99.90
8436;DHT22;4255;48.730;9.156;2022-09-27T15:30:19;12.40;99.90
8436;DHT22;4255;48.730;9.156;2022-09-27T15:32:55;12.20;99.90
8436;DHT22;4255;48.730;9.156;2022-09-27T15:35:26;12.00;99.90
8436;DHT22;4255;48.730;9.156;2022-09-27T15:38:09;12.00;99.90
8436;DHT22;4255;48.730;9.156;2022-09-27T15:43:19;11.90;99.90
8436;DHT22;4255;48.730;9.156;2022-09-27T15:45:50;11.80;99.90
8436;DHT22;4255;48.730;9.156;2022-09-27T15:48:18;11.90;99.90
8436;DHT22;4255;48.730;9.156;2022-09-27T15:50:44;11.90;99.90
8436;DHT22;4255;48.730;9.156;2022-09-27T15:53:12;12.00;99.90
8436;DHT22;4255;48.730;9.156;2022-09-27T15:55:42;12.10;99.90
8436;DHT22;4255;48.730;9.156;2022-09-27T15:58:34;12.00;99.90
8436;DHT22;4255;48.730;9.156;2022-09-27T16:01:02;12.00;99.90
8436;DHT22;4255;48.730;9.156;2022-09-27T16:03:30;11.80;99.90
8436;DHT22;4255;48.730;9.156;2022-09-27T16:05:57;12.00;99.90
8436;DHT22;4255;48.730;9.156;2022-09-27T16:08:24;11.80;99.90
8436;DHT22;4255;48.730;9.156;2022-09-27T16:10:52;12.00;99.90
8436;DHT22;4255;48.730;9.156;2022-09-27T16:13:19;11.60;99.90
8436;DHT22;4255;48.730;9.156;2022-09-27T16:15:46;11.40;99.90
8436;DHT22;4255;48.730;9.156;2022-09-27T16:18:12;11.40;99.90
8436;DHT22;4255;48.730;9.156;2022-09-27T16:20:38;11.60;99.90
8436;DHT22;4255;48.730;9.156;2022-09-27T16:23:04;11.60;99.90
8436;DHT22;4255;48.730;9.156;2022-09-27T16:25:30;11.60;99.90
8436;DHT22;4255;48.730;9.156;2022-09-27T16:27:59;11.50;99.90
8436;DHT22;4255;48.730;9.156;2022-09-27T16:30:25;11.50;99.90
8436;DHT22;4255;48.730;9.156;2022-09-27T16:32:51;11.50;99.90
8436;DHT22;4255;48.730;9.156;2022-09-27T16:35:19;11.50;99.90
8436;DHT22;4255;48.730;9.156;2022-09-27T16:37:45;11.60;99.90
8436;DHT22;4255;48.730;9.156;2022-09-27T16:40:12;11.40;99.90
8436;DHT22;4255;48.730;9.156;2022-09-27T16:42:38;11.10;99.90
8436;DHT22;4255;48.730;9.156;2022-09-27T16:45:05;11.00;99.90
8436;DHT22;4255;48.730;9.156;2022-09-27T16:47:31;11.00;99.90
8436;DHT22;4255;48.730;9.156;2022-09-27T16:49:57;11.00;99.90
8436;DHT22;4255;48.730;9.156;2022-09-27T16:52:41;10.90;99.90
8436;DHT22;4255;48.730;9.156;2022-09-27T16:55:12;10.90;99.90
8436;DHT22;4255;48.730;9.156;2022-09-27T16:57:38;11.00;99.90
8436;DHT22;4255;48.730;9.156;2022-09-27T17:00:05;10.80;99.90
8436;DHT22;4255;48.730;9.156;2022-09-27T17:02:31;11.00;99.90
8436;DHT22;4255;48.730;9.156;2022-09-27T17:04:57;10.80;99.90
8436;DHT22;4255;48.730;9.156;2022-09-27T17:07:22;10.90;99.90
8436;DHT22;4255;48.730;9.156;2022-09-27T17:09:48;10.90;99.90
8436;DHT22;4255;48.730;9.156;2022-09-27T17:12:15;10.80;99.90
8436;DHT22;4255;48.730;9.156;2022-09-27T17:14:40;10.70;99.90
8436;DHT22;4255;48.730;9.156;2022-09-27T17:17:06;10.60;99.90
8436;DHT22;4255;48.730;9.156;2022-09-27T17:19:31;10.60;99.90
8436;DHT22;4255;48.730;9.156;2022-09-27T17:21:58;10.70;99.90
8436;DHT22;4255;48.730;9.156;2022-09-27T17:24:24;10.70;99.90
8436;DHT22;4255;48.730;9.156;2022-09-27T17:26:50;10.60;99.90
8436;DHT22;4255;48.730;9.156;2022-09-27T17:29:16;10.60;99.90
8436;DHT22;4255;48.730;9.156;2022-09-27T17:31:42;10.50;99.90
8436;DHT22;4255;48.730;9.156;2022-09-27T17:34:10;10.50;99.90
8436;DHT22;4255;48.730;9.156;2022-09-27T17:36:41;10.40;99.90
8436;DHT22;4255;48.730;9.156;2022-09-27T17:39:11;10.40;99.90
8436;DHT22;4255;48.730;9.156;2022-09-27T17:41:37;10.20;99.90
8436;DHT22;4255;48.730;9.156;2022-09-27T17:44:04;10.20;99.90
8436;DHT22;4255;48.730;9.156;2022-09-27T17:46:31;10.30;99.90
8436;DHT22;4255;48.730;9.156;2022-09-27T17:48:58;10.40;99.90
8436;DHT22;4255;48.730;9.156;2022-09-27T17:51:45;10.30;99.90
8436;DHT22;4255;48.730;9.156;2022-09-27T17:54:12;10.30;99.90
8436;DHT22;4255;48.730;9.156;2022-09-27T17:56:39;10.10;99.90
8436;DHT22;4255;48.730;9.156;2022-09-27T17:59:05;9.90;99.90
8436;DHT22;4255;48.730;9.156;2022-09-27T18:01:31;10.00;99.90
8436;DHT22;4255;48.730;9.156;2022-09-27T18:03:59;10.10;99.90
8436;DHT22;4255;48.730;9.156;2022-09-27T18:06:26;9.90;99.90
8436;DHT22;4255;48.730;9.156;2022-09-27T18:08:53;9.90;99.90
8436;DHT22;4255;48.730;9.156;2022-09-27T18:11:22;9.90;99.90
8436;DHT22;4255;48.730;9.156;2022-09-27T18:13:53;9.90;99.90
8436;DHT22;4255;48.730;9.156;2022-09-27T18:16:19;9.80;99.90
8436;DHT22;4255;48.730;9.156;2022-09-27T18:18:47;9.90;99.90
8436;DHT22;4255;48.730;9.156;2022-09-27T18:21:15;9.90;99.90
8436;DHT22;4255;48.730;9.156;2022-09-27T18:23:43;9.90;99.90
8436;DHT22;4255;48.730;9.156;2022-09-27T18:26:10;9.90;99.90
8436;DHT22;4255;48.730;9.156;2022-09-27T18:28:40;9.90;99.90
8436;DHT22;4255;48.730;9.156;2022-09-27T18:31:16;10.00;99.90
8436;DHT22;4255;48.730;9.156;2022-09-27T18:33:42;9.90;99.90
8436;DHT22;4255;48.730;9.156;2022-09-27T18:36:17;10.00;99.90
8436;DHT22;4255;48.730;9.156;2022-09-27T18:38:44;10.00;99.90
8436;DHT22;4255;48.730;9.156;2022-09-27T18:41:15;10.00;99.90
8436;DHT22;4255;48.730;9.156;2022-09-27T18:43:43;9.90;99.90
8436;DHT22;4255;48.730;9.156;2022-09-27T18:46:11;9.80;99.90
8436;DHT22;4255;48.730;9.156;2022-09-27T18:48:38;9.80;99.90
8436;DHT22;4255;48.730;9.156;2022-09-27T18:51:14;9.90;99.90
8436;DHT22;4255;48.730;9.156;2022-09-27T18:53:39;9.80;99.90
8436;DHT22;4255;48.730;9.156;2022-09-27T18:56:07;9.80;99.90
8436;DHT22;4255;48.730;9.156;2022-09-27T18:58:34;9.80;99.90
8436;DHT22;4255;48.730;9.156;2022-09-27T19:01:01;9.80;99.90
8436;DHT22;4255;48.730;9.156;2022-09-27T19:03:28;9.90;99.90
8436;DHT22;4255;48.730;9.156;2022-09-27T19:05:58;9.80;99.90
8436;DHT22;4255;48.730;9.156;2022-09-27T19:08:24;9.80;99.90
8436;DHT22;4255;48.730;9.156;2022-09-27T19:10:50;9.80;99.90
8436;DHT22;4255;48.730;9.156;2022-09-27T19:13:16;9.70;99.90
8436;DHT22;4255;48.730;9.156;2022-09-27T19:15:42;9.70;99.90
8436;DHT22;4255;48.730;9.156;2022-09-27T19:18:08;9.60;99.90
8436;DHT22;4255;48.730;9.156;2022-09-27T19:20:34;9.50;99.90
8436;DHT22;4255;48.730;9.156;2022-09-27T19:23:00;9.50;99.90
8436;DHT22;4255;48.730;9.156;2022-09-27T19:25:26;9.40;99.90